createdAt,value
2022-07-29T00:00:00.291Z,99.90
2022-07-29T00:02:28.276Z,99.90
2022-07-29T00:04:55.589Z,99.90
2022-07-29T00:07:22.807Z,99.90
2022-07-29T00:09:50.926Z,99.90
2022-07-29T00:12:25.549Z,99.90
2022-07-29T00:14:54.704Z,99.90
2022-07-29T00:17:22.380Z,99.90
2022-07-29T00:19:49.603Z,99.90
2022-07-29T00:22:16.916Z,99.90
2022-07-29T00:24:44.135Z,99.90
2022-07-29T00:27:11.358Z,99.90
2022-07-29T00:29:38.584Z,99.90
2022-07-29T00:32:06.137Z,99.90
2022-07-29T00:34:51.917Z,99.90
2022-07-29T00:37:19.141Z,99.90
2022-07-29T00:39:46.390Z,99.90
2022-07-29T00:42:13.661Z,99.90
2022-07-29T00:44:41.416Z,99.90
2022-07-29T00:47:09.527Z,99.90
2022-07-29T00:49:37.139Z,99.90
2022-07-29T00:52:08.058Z,99.90
2022-07-29T00:54:35.715Z,99.90
2022-07-29T00:57:11.816Z,99.90
2022-07-29T00:59:39.093Z,99.90
2022-07-29T01:02:06.461Z,99.90
2022-07-29T01:04:33.767Z,99.90
2022-07-29T01:07:04.321Z,99.90
2022-07-29T01:09:45.484Z,99.90
2022-07-29T01:12:32.741Z,99.90
2022-07-29T01:15:00.437Z,99.90
2022-07-29T01:17:37.842Z,99.90
2022-07-29T01:20:13.552Z,99.90
2022-07-29T01:22:59.581Z,99.90
2022-07-29T01:25:56.305Z,99.90
2022-07-29T01:28:43.699Z,99.90
2022-07-29T01:31:13.424Z,99.90
2022-07-29T01:33:58.876Z,99.90
2022-07-29T01:36:35.114Z,99.90
2022-07-29T01:39:17.958Z,99.90
2022-07-29T01:41:56.990Z,99.90
2022-07-29T01:44:52.426Z,99.90
2022-07-29T01:47:21.925Z,99.90
2022-07-29T01:49:55.547Z,99.90
2022-07-29T01:52:27.186Z,99.90
2022-07-29T01:54:56.867Z,99.90
2022-07-29T01:57:28.696Z,99.90
2022-07-29T01:59:57.127Z,99.90
2022-07-29T02:02:24.367Z,99.90
2022-07-29T02:04:51.685Z,99.90
2022-07-29T02:07:20.579Z,99.90
2022-07-29T02:09:48.572Z,99.90
2022-07-29T02:12:16.473Z,99.90
2022-07-29T02:14:46.710Z,99.90
2022-07-29T02:17:14.192Z,99.90
2022-07-29T02:19:41.409Z,99.90
2022-07-29T02:22:08.651Z,99.90
2022-07-29T02:24:37.030Z,99.90
2022-07-29T02:27:04.506Z,99.90
2022-07-29T02:29:31.776Z,99.90
2022-07-29T02:31:59.210Z,99.90
2022-07-29T02:34:26.433Z,99.90
2022-07-29T02:36:53.741Z,99.90
2022-07-29T02:39:20.979Z,99.90
2022-07-29T02:41:49.587Z,99.90
2022-07-29T02:44:21.871Z,99.90
2022-07-29T02:46:53.277Z,99.90
2022-07-29T02:49:35.548Z,99.90
2022-07-29T02:52:19.304Z,99.90
2022-07-29T02:55:03.147Z,99.90
2022-07-29T02:57:34.271Z,99.90
2022-07-29T03:00:05.701Z,99.90
2022-07-29T03:02:41.238Z,99.90
2022-07-29T03:05:10.451Z,99.90
2022-07-29T03:07:38.043Z,99.90
2022-07-29T03:10:05.950Z,99.90
2022-07-29T03:12:41.909Z,99.90
2022-07-29T03:15:09.548Z,99.90
2022-07-29T03:17:37.372Z,99.90
2022-07-29T03:20:05.167Z,99.90
2022-07-29T03:22:32.399Z,99.90
2022-07-29T03:24:59.619Z,99.90
2022-07-29T03:27:26.837Z,99.90
2022-07-29T03:29:54.082Z,99.90
2022-07-29T03:32:25.092Z,99.90
2022-07-29T03:34:52.757Z,99.90
2022-07-29T03:37:20.004Z,99.90
2022-07-29T03:39:47.300Z,99.90
2022-07-29T03:42:15.712Z,99.90
2022-07-29T03:44:44.017Z,99.90
2022-07-29T03:47:11.476Z,99.90
2022-07-29T03:49:39.014Z,99.90
2022-07-29T03:52:06.781Z,99.90
2022-07-29T03:54:34.096Z,99.90
2022-07-29T03:57:02.369Z,99.90
2022-07-29T03:59:29.587Z,99.90
2022-07-29T04:01:56.933Z,99.90
2022-07-29T04:04:24.246Z,99.90
2022-07-29T04:06:54.570Z,99.90
2022-07-29T04:09:21.983Z,99.90
2022-07-29T04:12:01.705Z,99.90
2022-07-29T04:14:32.812Z,99.90
2022-07-29T04:17:00.915Z,99.90
2022-07-29T04:19:28.245Z,99.90
2022-07-29T04:21:55.485Z,99.90
2022-07-29T04:24:22.744Z,99.90
2022-07-29T04:26:49.988Z,99.90
2022-07-29T04:29:17.230Z,99.90
2022-07-29T04:31:44.797Z,99.90
2022-07-29T04:34:12.355Z,99.90
2022-07-29T04:36:39.635Z,99.90
2022-07-29T04:39:06.881Z,99.90
2022-07-29T04:41:34.546Z,99.90
2022-07-29T04:44:06.901Z,99.90
2022-07-29T04:46:34.877Z,99.90
2022-07-29T04:49:03.325Z,99.90
2022-07-29T04:51:30.645Z,99.90
2022-07-29T04:53:57.915Z,99.90
2022-07-29T04:56:25.136Z,99.90
2022-07-29T04:58:52.394Z,99.90
2022-07-29T05:01:19.960Z,99.90
2022-07-29T05:03:47.359Z,99.90
2022-07-29T05:06:14.604Z,99.90
2022-07-29T05:08:42.078Z,99.90
2022-07-29T05:11:12.057Z,99.90
2022-07-29T05:13:45.302Z,99.90
2022-07-29T05:16:14.293Z,99.90
2022-07-29T05:18:42.022Z,99.90
2022-07-29T05:21:09.307Z,99.90
2022-07-29T05:23:36.616Z,99.90
2022-07-29T05:26:03.868Z,99.90
2022-07-29T05:28:35.028Z,99.90
2022-07-29T05:31:02.754Z,99.90
2022-07-29T05:33:35.807Z,99.90
2022-07-29T05:36:08.199Z,99.90
2022-07-29T05:38:36.461Z,99.90
2022-07-29T05:41:04.172Z,99.90
2022-07-29T05:43:31.405Z,99.90
2022-07-29T05:45:58.827Z,99.90
2022-07-29T05:48:26.308Z,99.90
2022-07-29T05:50:53.639Z,99.90
2022-07-29T05:53:21.545Z,99.90
2022-07-29T05:55:49.451Z,99.90
2022-07-29T05:58:16.866Z,99.90
2022-07-29T06:00:44.173Z,99.90
2022-07-29T06:03:11.577Z,99.90
2022-07-29T06:05:38.830Z,99.90
2022-07-29T06:08:09.208Z,99.90
2022-07-29T06:10:36.502Z,99.90
2022-07-29T06:13:03.953Z,99.90
2022-07-29T06:15:31.178Z,99.90
2022-07-29T06:18:00.354Z,99.90
2022-07-29T06:20:32.119Z,99.90
2022-07-29T06:23:00.168Z,99.90
2022-07-29T06:25:30.235Z,99.90
2022-07-29T06:27:58.298Z,99.90
2022-07-29T06:30:25.584Z,99.90
2022-07-29T06:32:52.960Z,99.90
2022-07-29T06:35:41.549Z,99.90
2022-07-29T06:38:12.008Z,99.90
2022-07-29T06:41:06.936Z,99.90
2022-07-29T06:43:35.245Z,99.90
2022-07-29T06:46:03.718Z,99.90
2022-07-29T06:48:31.099Z,99.90
2022-07-29T06:50:58.455Z,99.90
2022-07-29T06:53:25.786Z,99.90
2022-07-29T06:55:53.013Z,99.90
2022-07-29T06:58:21.455Z,99.90
2022-07-29T07:00:56.788Z,99.90
2022-07-29T07:03:24.084Z,99.90
2022-07-29T07:05:52.413Z,99.90
2022-07-29T07:08:20.407Z,99.90
2022-07-29T07:10:47.709Z,99.90
2022-07-29T07:13:15.773Z,99.90
2022-07-29T07:15:42.983Z,99.90
2022-07-29T07:18:10.270Z,99.90
2022-07-29T07:20:37.695Z,99.90
2022-07-29T07:23:05.611Z,99.90
2022-07-29T07:25:32.843Z,99.90
2022-07-29T07:28:00.091Z,99.90
2022-07-29T07:30:28.146Z,99.90
2022-07-29T07:32:56.244Z,99.90
2022-07-29T07:35:23.495Z,99.90
2022-07-29T07:37:50.767Z,99.90
2022-07-29T07:40:18.540Z,99.90
2022-07-29T07:42:46.199Z,99.90
2022-07-29T07:45:16.293Z,99.90
2022-07-29T07:47:44.118Z,99.90
2022-07-29T07:50:18.047Z,99.90
2022-07-29T07:52:53.563Z,99.90
2022-07-29T07:55:20.910Z,99.90
2022-07-29T07:57:48.470Z,99.90
2022-07-29T08:00:16.354Z,99.90
2022-07-29T08:02:46.393Z,99.90
2022-07-29T08:05:17.576Z,99.90
2022-07-29T08:07:48.411Z,99.90
2022-07-29T08:10:36.525Z,99.90
2022-07-29T08:13:07.684Z,99.90
2022-07-29T08:15:35.136Z,99.90
2022-07-29T08:18:08.220Z,99.90
2022-07-29T08:20:36.792Z,99.90
2022-07-29T08:23:05.278Z,99.90
2022-07-29T08:25:33.263Z,99.90
2022-07-29T08:28:05.070Z,99.90
2022-07-29T08:30:33.242Z,99.90
2022-07-29T08:33:00.628Z,99.90
2022-07-29T08:35:32.098Z,99.90
2022-07-29T08:38:02.293Z,99.90
2022-07-29T08:40:31.833Z,99.90
2022-07-29T08:43:06.451Z,99.90
2022-07-29T08:45:52.533Z,99.90
2022-07-29T08:48:23.751Z,99.90
2022-07-29T08:50:56.320Z,99.90
2022-07-29T08:53:24.801Z,99.90
2022-07-29T08:55:52.129Z,99.90
2022-07-29T08:58:23.006Z,99.80
2022-07-29T09:00:53.386Z,99.90
2022-07-29T09:03:24.785Z,99.90
2022-07-29T09:05:52.143Z,99.90
2022-07-29T09:08:19.548Z,99.90
2022-07-29T09:10:47.053Z,99.70
2022-07-29T09:13:14.268Z,99.90
2022-07-29T09:15:41.556Z,99.90
2022-07-29T09:18:20.501Z,99.90
2022-07-29T09:21:14.808Z,99.90
2022-07-29T09:23:43.748Z,99.40
2022-07-29T09:26:10.984Z,99.40
2022-07-29T09:28:42.559Z,99.50
2022-07-29T09:31:09.872Z,99.90
2022-07-29T09:33:40.103Z,99.90
2022-07-29T09:36:08.391Z,99.90
2022-07-29T09:38:40.475Z,99.90
2022-07-29T09:41:09.733Z,99.90
2022-07-29T09:43:36.960Z,99.90
2022-07-29T09:46:13.949Z,99.90
2022-07-29T09:48:41.294Z,99.90
2022-07-29T09:51:25.483Z,99.90
2022-07-29T09:53:57.159Z,99.90
2022-07-29T09:56:44.671Z,99.90
2022-07-29T09:59:13.044Z,99.90
2022-07-29T10:01:40.444Z,99.90
2022-07-29T10:04:07.735Z,99.90
2022-07-29T10:06:34.970Z,99.90
2022-07-29T10:09:10.199Z,99.90
2022-07-29T10:11:56.780Z,99.90
2022-07-29T10:14:24.140Z,99.90
2022-07-29T10:16:51.357Z,99.90
2022-07-29T10:19:18.640Z,99.90
2022-07-29T10:21:46.024Z,99.90
2022-07-29T10:24:14.965Z,99.90
2022-07-29T10:26:43.235Z,99.90
2022-07-29T10:29:10.558Z,99.90
2022-07-29T10:32:05.767Z,99.90
2022-07-29T10:34:49.664Z,99.90
2022-07-29T10:37:46.522Z,99.90
2022-07-29T10:40:41.605Z,99.90
2022-07-29T10:43:38.767Z,99.90
2022-07-29T10:46:07.454Z,99.90
2022-07-29T10:48:35.877Z,99.90
2022-07-29T10:51:07.773Z,99.90
2022-07-29T10:53:55.403Z,99.90
2022-07-29T10:56:30.253Z,99.80
2022-07-29T10:59:21.542Z,99.90
2022-07-29T11:01:53.567Z,99.90
2022-07-29T11:04:47.102Z,99.90
2022-07-29T11:07:17.343Z,98.70
2022-07-29T11:09:46.416Z,98.90
2022-07-29T11:12:39.312Z,98.00
2022-07-29T11:15:18.063Z,97.80
2022-07-29T11:18:01.450Z,98.60
2022-07-29T11:20:48.232Z,97.80
2022-07-29T11:23:33.443Z,97.80
2022-07-29T11:26:14.468Z,97.70
2022-07-29T11:28:55.981Z,97.60
2022-07-29T11:31:39.263Z,97.70
2022-07-29T11:34:28.034Z,97.90
2022-07-29T11:37:15.543Z,97.00
2022-07-29T11:39:54.205Z,95.70
2022-07-29T11:42:32.068Z,96.40
2022-07-29T11:45:41.886Z,95.90
2022-07-29T11:48:27.879Z,96.50
2022-07-29T11:50:48.288Z,95.30
2022-07-29T11:53:16.114Z,96.90
2022-07-29T11:55:50.853Z,97.00
2022-07-29T11:58:26.193Z,96.90
2022-07-29T12:00:55.210Z,96.60
2022-07-29T12:03:34.797Z,96.60
2022-07-29T12:06:12.226Z,96.30
2022-07-29T12:08:44.299Z,95.90
2022-07-29T12:11:21.245Z,95.80
2022-07-29T12:13:50.279Z,96.40
2022-07-29T12:16:28.164Z,96.20
2022-07-29T12:19:00.703Z,95.90
2022-07-29T12:21:53.661Z,96.10
2022-07-29T12:24:26.999Z,96.20
2022-07-29T12:26:56.075Z,96.10
2022-07-29T12:29:34.504Z,96.50
2022-07-29T12:32:03.438Z,96.20
2022-07-29T12:34:31.029Z,96.60
2022-07-29T12:36:58.344Z,96.30
2022-07-29T12:39:28.647Z,96.20
2022-07-29T12:42:04.544Z,96.00
2022-07-29T12:44:48.884Z,95.40
2022-07-29T12:47:16.824Z,94.60
2022-07-29T12:49:44.037Z,95.20
2022-07-29T12:52:31.494Z,95.30
2022-07-29T12:54:58.922Z,95.50
2022-07-29T12:57:26.743Z,95.80
2022-07-29T13:00:11.875Z,96.00
2022-07-29T13:02:39.464Z,96.20
2022-07-29T13:05:07.392Z,96.10
2022-07-29T13:07:55.627Z,96.80
2022-07-29T13:10:24.910Z,96.60
2022-07-29T13:13:12.059Z,96.70
2022-07-29T13:15:40.543Z,97.20
2022-07-29T13:18:28.112Z,96.80
2022-07-29T13:20:55.837Z,98.10
2022-07-29T13:23:23.322Z,97.50
2022-07-29T13:25:50.640Z,98.00
2022-07-29T13:28:18.379Z,97.60
2022-07-29T13:30:45.696Z,98.30
2022-07-29T13:33:13.001Z,98.60
2022-07-29T13:35:40.389Z,98.90
2022-07-29T13:38:08.252Z,98.60
2022-07-29T13:40:36.283Z,98.60
2022-07-29T13:43:03.543Z,99.00
2022-07-29T13:45:31.287Z,98.90
2022-07-29T13:47:58.579Z,99.00
2022-07-29T13:50:25.835Z,99.00
2022-07-29T13:52:53.607Z,99.40
2022-07-29T13:55:20.859Z,99.10
2022-07-29T13:57:48.535Z,99.20
2022-07-29T14:00:16.989Z,99.40
2022-07-29T14:02:44.196Z,99.10
2022-07-29T14:05:11.598Z,99.00
2022-07-29T14:07:42.041Z,98.80
2022-07-29T14:10:09.782Z,97.80
2022-07-29T14:12:37.249Z,98.10
2022-07-29T14:15:04.964Z,97.70
2022-07-29T14:17:32.199Z,97.70
2022-07-29T14:19:59.445Z,98.10
2022-07-29T14:22:26.793Z,97.90
2022-07-29T14:24:54.038Z,98.20
2022-07-29T14:27:37.630Z,97.80
2022-07-29T14:30:07.037Z,97.90
2022-07-29T14:32:34.348Z,98.00
2022-07-29T14:35:01.576Z,97.80
2022-07-29T14:37:28.853Z,98.00
2022-07-29T14:40:08.622Z,97.50
2022-07-29T14:42:37.065Z,97.90
2022-07-29T14:45:06.505Z,98.00
2022-07-29T14:47:33.791Z,98.10
2022-07-29T14:50:01.066Z,98.40
2022-07-29T14:52:28.286Z,98.70
2022-07-29T14:54:55.515Z,98.60
2022-07-29T14:57:22.741Z,99.10
2022-07-29T14:59:49.988Z,98.80
2022-07-29T15:02:17.281Z,98.50
2022-07-29T15:04:46.664Z,98.20
2022-07-29T15:07:13.959Z,98.60
2022-07-29T15:09:49.921Z,98.80
2022-07-29T15:12:17.520Z,99.00
2022-07-29T15:14:44.765Z,98.80
2022-07-29T15:17:12.049Z,99.30
2022-07-29T15:19:39.768Z,99.20
2022-07-29T15:22:12.345Z,99.40
2022-07-29T15:24:39.724Z,99.80
2022-07-29T15:27:07.007Z,99.90
2022-07-29T15:29:34.233Z,99.90
2022-07-29T15:32:02.200Z,99.90
2022-07-29T15:34:29.696Z,99.90
2022-07-29T15:36:57.680Z,99.90
2022-07-29T15:39:24.927Z,99.90
2022-07-29T15:41:52.210Z,99.90
2022-07-29T15:44:19.869Z,99.90
2022-07-29T15:47:03.902Z,99.90
2022-07-29T15:49:46.557Z,99.90
2022-07-29T15:52:25.991Z,99.90
2022-07-29T15:54:57.524Z,99.90
2022-07-29T15:57:24.919Z,99.90
2022-07-29T15:59:52.243Z,99.90
2022-07-29T16:02:19.612Z,99.90
2022-07-29T16:04:47.188Z,99.90
2022-07-29T16:07:14.912Z,99.90
2022-07-29T16:09:42.750Z,99.90
2022-07-29T16:12:15.078Z,99.90
2022-07-29T16:14:45.906Z,99.90
2022-07-29T16:17:14.953Z,99.90
2022-07-29T16:19:43.365Z,99.90
2022-07-29T16:22:10.926Z,99.90
2022-07-29T16:24:38.875Z,99.90
2022-07-29T16:27:06.181Z,99.90
2022-07-29T16:29:33.523Z,99.90
2022-07-29T16:32:01.821Z,99.90
2022-07-29T16:34:29.585Z,99.90
2022-07-29T16:36:56.825Z,99.90
2022-07-29T16:39:24.051Z,99.90
2022-07-29T16:41:51.312Z,99.90
2022-07-29T16:44:18.548Z,99.90
2022-07-29T16:46:45.804Z,99.90
2022-07-29T16:49:18.357Z,99.90
2022-07-29T16:51:47.810Z,99.90
2022-07-29T16:54:15.347Z,99.90
2022-07-29T16:56:42.564Z,99.90
2022-07-29T16:59:09.796Z,99.90
2022-07-29T17:01:37.095Z,99.90
2022-07-29T17:04:07.176Z,99.90
2022-07-29T17:06:37.035Z,99.90
2022-07-29T17:09:05.045Z,99.90
2022-07-29T17:11:52.580Z,99.90
2022-07-29T17:14:23.431Z,99.90
2022-07-29T17:16:55.265Z,99.90
2022-07-29T17:19:35.125Z,99.90
2022-07-29T17:22:19.386Z,99.90
2022-07-29T17:24:47.565Z,99.90
2022-07-29T17:27:15.315Z,99.90
2022-07-29T17:29:42.870Z,99.90
2022-07-29T17:32:10.250Z,99.90
2022-07-29T17:34:38.305Z,99.90
2022-07-29T17:37:06.107Z,99.90
2022-07-29T17:39:35.255Z,99.90
2022-07-29T17:42:03.586Z,99.90
2022-07-29T17:44:30.826Z,99.90
2022-07-29T17:47:00.389Z,99.90
2022-07-29T17:49:28.158Z,99.90
2022-07-29T17:51:59.012Z,99.90
2022-07-29T17:54:28.184Z,99.90
2022-07-29T17:56:55.703Z,99.90
2022-07-29T17:59:23.042Z,99.90
2022-07-29T18:01:50.387Z,99.90
2022-07-29T18:04:20.899Z,99.90
2022-07-29T18:06:48.157Z,99.90
2022-07-29T18:09:15.460Z,99.90
2022-07-29T18:11:44.450Z,99.90
2022-07-29T18:14:13.431Z,99.90
2022-07-29T18:16:40.982Z,99.90
2022-07-29T18:19:08.698Z,99.90
2022-07-29T18:21:51.262Z,99.90
2022-07-29T18:24:25.191Z,99.90
2022-07-29T18:26:52.558Z,99.90
2022-07-29T18:29:19.825Z,99.90
2022-07-29T18:31:47.110Z,99.90
2022-07-29T18:34:14.407Z,99.90
2022-07-29T18:36:41.655Z,99.90
2022-07-29T18:39:08.875Z,99.90
2022-07-29T18:41:46.135Z,99.90
2022-07-29T18:44:22.021Z,99.90
2022-07-29T18:46:51.227Z,99.90
2022-07-29T18:49:18.805Z,99.90
2022-07-29T18:51:46.169Z,99.90
2022-07-29T18:54:13.434Z,99.90
2022-07-29T18:56:40.731Z,99.90
2022-07-29T18:59:08.181Z,99.90
2022-07-29T19:01:35.519Z,99.90
2022-07-29T19:04:03.037Z,99.90
2022-07-29T19:06:30.284Z,99.90
2022-07-29T19:08:57.544Z,99.90
2022-07-29T19:11:24.837Z,99.90
2022-07-29T19:13:52.085Z,99.90
2022-07-29T19:16:19.419Z,99.90
2022-07-29T19:18:47.358Z,99.90
2022-07-29T19:21:14.691Z,99.90
2022-07-29T19:24:05.771Z,99.90
2022-07-29T19:26:29.983Z,99.90
2022-07-29T19:28:57.318Z,99.90
2022-07-29T19:31:24.685Z,99.90
2022-07-29T19:33:52.009Z,99.90
2022-07-29T19:36:19.300Z,99.90
2022-07-29T19:38:46.532Z,99.90
2022-07-29T19:41:13.831Z,99.90
2022-07-29T19:43:52.093Z,99.90
2022-07-29T19:46:23.538Z,99.90
2022-07-29T19:48:51.219Z,99.90
2022-07-29T19:51:18.578Z,99.90
2022-07-29T19:53:45.833Z,99.90
2022-07-29T19:56:13.052Z,99.90
2022-07-29T19:58:40.795Z,99.90
2022-07-29T20:01:10.124Z,99.90
2022-07-29T20:03:40.042Z,99.90
2022-07-29T20:06:07.704Z,99.90
2022-07-29T20:08:34.976Z,99.90
2022-07-29T20:11:02.680Z,99.90
2022-07-29T20:13:31.677Z,99.90
2022-07-29T20:15:59.753Z,99.90
2022-07-29T20:18:27.300Z,99.90
2022-07-29T20:20:56.568Z,99.90
2022-07-29T20:23:23.856Z,99.90
2022-07-29T20:25:51.156Z,99.90
2022-07-29T20:28:18.372Z,99.90
2022-07-29T20:30:45.754Z,99.90
2022-07-29T20:33:14.895Z,99.90
2022-07-29T20:35:43.390Z,99.90
2022-07-29T20:38:13.865Z,99.90
2022-07-29T20:40:44.389Z,99.90
2022-07-29T20:43:11.635Z,99.90
2022-07-29T20:45:39.483Z,99.90
2022-07-29T20:48:06.950Z,99.90
2022-07-29T20:50:35.868Z,99.90
2022-07-29T20:53:03.393Z,99.90
2022-07-29T20:55:31.941Z,99.90
2022-07-29T20:57:59.193Z,99.90
2022-07-29T21:00:26.442Z,99.90
2022-07-29T21:02:53.798Z,99.90
2022-07-29T21:05:21.061Z,99.90
2022-07-29T21:07:48.321Z,99.90
2022-07-29T21:10:18.128Z,99.90
2022-07-29T21:12:48.424Z,99.90
2022-07-29T21:15:16.195Z,99.90
2022-07-29T21:17:47.076Z,99.90
2022-07-29T21:20:18.335Z,99.90
2022-07-29T21:22:45.625Z,99.90
2022-07-29T21:25:12.961Z,99.90
2022-07-29T21:27:58.637Z,99.90
2022-07-29T21:30:25.873Z,99.90
2022-07-29T21:32:53.133Z,99.90
2022-07-29T21:35:35.949Z,99.90
2022-07-29T21:38:07.596Z,99.90
2022-07-29T21:40:34.839Z,99.90
2022-07-29T21:43:02.079Z,99.90
2022-07-29T21:45:29.347Z,99.90
2022-07-29T21:47:56.589Z,99.90
2022-07-29T21:50:23.884Z,99.90
2022-07-29T21:52:51.148Z,99.90
2022-07-29T21:55:18.618Z,99.90
2022-07-29T21:57:46.646Z,99.90
2022-07-29T22:00:17.049Z,99.90
2022-07-29T22:02:44.484Z,99.90
2022-07-29T22:05:12.300Z,99.90
2022-07-29T22:07:54.560Z,99.90
2022-07-29T22:10:28.363Z,99.90
2022-07-29T22:12:57.108Z,99.90
2022-07-29T22:15:24.614Z,99.90
2022-07-29T22:17:51.875Z,99.90
2022-07-29T22:20:19.314Z,99.90
2022-07-29T22:22:46.923Z,99.90
2022-07-29T22:25:14.201Z,99.90
2022-07-29T22:27:41.445Z,99.90
2022-07-29T22:30:09.212Z,99.90
2022-07-29T22:32:36.491Z,99.90
2022-07-29T22:35:03.933Z,99.90
2022-07-29T22:37:31.228Z,99.90
2022-07-29T22:39:58.479Z,99.90
2022-07-29T22:42:25.695Z,99.90
2022-07-29T22:44:52.931Z,99.90
2022-07-29T22:47:46.638Z,99.90
2022-07-29T22:50:07.752Z,99.90
2022-07-29T22:52:34.967Z,99.90
2022-07-29T22:55:03.170Z,99.90
2022-07-29T22:57:30.463Z,99.90
2022-07-29T22:59:57.721Z,99.90
2022-07-29T23:02:24.934Z,99.90
2022-07-29T23:04:52.145Z,99.90
2022-07-29T23:07:19.374Z,99.90
2022-07-29T23:09:46.799Z,99.90
2022-07-29T23:12:14.043Z,99.90
2022-07-29T23:14:41.307Z,99.90
2022-07-29T23:17:08.555Z,99.90
2022-07-29T23:19:35.847Z,99.90
2022-07-29T23:22:03.064Z,99.90
2022-07-29T23:24:30.306Z,99.90
2022-07-29T23:26:57.886Z,99.90
2022-07-29T23:29:25.284Z,99.90
2022-07-29T23:31:52.520Z,99.90
2022-07-29T23:34:19.776Z,99.90
2022-07-29T23:36:47.011Z,99.90
2022-07-29T23:39:14.579Z,99.90
2022-07-29T23:41:42.012Z,99.90
2022-07-29T23:44:09.474Z,99.90
2022-07-29T23:46:36.814Z,99.90
2022-07-29T23:49:04.095Z,99.90
2022-07-29T23:51:32.916Z,99.90
2022-07-29T23:54:00.183Z,99.90
2022-07-29T23:56:27.404Z,99.90
2022-07-29T23:58:54.638Z,99.90
